• Join FlightAware (Why Join?)
  • Login
  • US Flag 
02:24PM EDT


 

Airport Tracker/Info


-or-


 

Live Flight TrackerFlight Track Log ✈ SWA469 ✈ 26-Apr-2013 ✈ KMDW - KRSW

Flight Track Log - Related Links

Times and Time Zones

All times are in EDT time to prevent confusion due to time zone crossing. See the SWA469 flight status page for this flight to view local times or setup timezone preferences in your user account.

Time Position Orientation Groundspeed Altitude Reporting Facility
EDT Latitude Longitude Course Direction KTS MPH feet Rate Location/Type
09:10AM 41.6042 -87.8669 203° Southwest 278 320 10,800  Level Chicago Center
09:11AM 41.5214 -87.8717 182° South 294 338 13,700 2,760 Climbing Chicago Center
09:12AM 41.4219 -87.8769 182° South 350 403 16,600 2,520 Climbing Chicago Center
09:13AM 41.3194 -87.8869 184° South 362 417 19,000 2,400 Climbing Chicago Center
09:14AM 41.2097 -87.8928 182° South 385 443 21,600 2,280 Climbing Chicago Center
09:15AM 41.0967 -87.8886 178° South 400 460 23,700 1,980 Climbing Chicago Center
09:16AM 40.9775 -87.8836 178° South 420 483 25,800 1,980 Climbing Chicago Center
09:17AM 40.8550 -87.8797 179° South 438 504 27,800 2,100 Climbing Chicago Center
09:18AM 40.7069 -87.8747 179° South 444 511 30,200 2,160 Climbing Chicago Center
09:20AM 40.5831 -87.8708 179° South 446 513 32,300 1,800 Climbing Chicago Center
09:21AM 40.4625 -87.8664 178° South 439 505 34,000 1,380 Climbing Chicago Center
09:21AM 40.3378 -87.8661 180° South 441 507 35,100 1,080 Climbing Indianapolis Center
09:23AM 40.2106 -87.8597 178° South 451 519 36,200 1,140 Climbing Indianapolis Center
09:24AM 40.0828 -87.8553 178° South 457 526 37,500 840 Climbing Indianapolis Center
09:25AM 39.9556 -87.8492 178° South 456 525 38,000 240 Climbing Indianapolis Center
09:26AM 39.8264 -87.8433 178° South 460 529 38,000  Level Indianapolis Center
09:27AM 39.6769 -87.8364 178° South 459 528 38,000  Level Indianapolis Center
09:28AM 39.5483 -87.8314 178° South 460 529 38,000  Level Indianapolis Center
09:29AM 39.4203 -87.8261 178° South 460 529 38,000  Level Indianapolis Center
09:30AM 39.3008 -87.8211 178° South 462 532 38,000  Level Indianapolis Center
09:31AM 39.1733 -87.8144 178° South 459 528 38,000  Level Indianapolis Center
09:32AM 39.0197 -87.8075 178° South 459 528 38,000  Level Indianapolis Center
09:33AM 38.8931 -87.8042 179° South 455 524 38,000 120 Level Indianapolis Center
09:34AM 38.7650 -87.7889 175° South 461 531 38,300 480 Climbing Indianapolis Center
09:35AM 38.6347 -87.7311 161° South 490 564 39,000 300 Climbing Indianapolis Center
09:36AM 38.5042 -87.6753 161° South 496 571 39,000  Level Indianapolis Center
09:37AM 38.3742 -87.6208 162° South 494 568 39,000  Level Indianapolis Center
09:38AM 38.2181 -87.5525 161° South 496 571 39,000  Level Indianapolis Center
09:39AM 38.0875 -87.4964 161° South 496 571 39,000  Level Indianapolis Center
09:40AM 37.9567 -87.4406 161° South 497 572 39,000  Level Indianapolis Center
09:41AM 37.8278 -87.3850 161° South 491 565 39,000  Level Indianapolis Center
09:42AM 37.6800 -87.3217 161° South 497 572 39,000  Level Indianapolis Center
09:43AM 37.6128 -87.2967 164° South 499 574 39,000  Level Memphis Center
09:44AM 37.4844 -87.2417 161° South 494 568 39,000  Level Memphis Center
09:45AM 37.3539 -87.1869 162° South 494 568 39,000  Level Memphis Center
09:46AM 37.2253 -87.1319 161° South 494 568 39,000  Level Memphis Center
09:47AM 37.1075 -87.0822 161° South 494 568 39,000  Level Memphis Center
09:48AM 36.9767 -87.0278 162° South 494 568 39,000  Level Memphis Center
09:49AM 36.8461 -86.9761 162° South 494 568 39,000  Level Memphis Center
09:50AM 36.7175 -86.9219 161° South 488 562 39,000  Level Memphis Center
09:51AM 36.5869 -86.8683 162° South 495 570 39,000  Level Memphis Center
09:52AM 36.4414 -86.8075 161° South 489 563 39,000  Level Memphis Center
09:53AM 36.3083 -86.7539 162° South 501 577 39,000  Level Memphis Center
09:54AM 36.1756 -86.7008 162° South 506 582 39,000  Level Memphis Center
09:55AM 36.0508 -86.6422 159° South 490 564 39,000  Level Memphis Center
09:56AM 35.9450 -86.5906 158° South 473 544 39,000  Level Memphis Center
09:57AM 35.8244 -86.5319 158° South 466 536 39,000  Level Memphis Center
09:59AM 35.5539 -86.4000 158° South 471 542 39,000  Level Atlanta Center
10:00AM 35.4278 -86.3378 158° South 471 542 39,000  Level Atlanta Center
10:01AM 35.3056 -86.2808 159° South 471 542 39,000  Level Atlanta Center
10:02AM 35.1836 -86.2167 157° South 471 542 39,000  Level Atlanta Center
10:03AM 35.0886 -86.1658 156° South 471 542 39,000  Level Atlanta Center
10:04AM 34.9333 -86.0986 160° South 483 556 39,000  Level Atlanta Center
10:05AM 34.8111 -86.0322 156° South 483 556 39,000  Level Atlanta Center
10:06AM 34.6994 -85.9792 159° South 489 563 39,000  Level Atlanta Center
10:07AM 34.5731 -85.9183 158° South 489 563 39,000  Level Atlanta Center
10:08AM 34.4444 -85.8575 159° South 489 563 39,000  Level Atlanta Center
10:09AM 34.3200 -85.8044 161° South 489 563 39,000  Level Atlanta Center
10:10AM 34.1936 -85.7439 158° South 480 552 39,000  Level Atlanta Center
10:11AM 34.0672 -85.6839 159° South 487 560 39,000  Level Atlanta Center
10:12AM 33.9428 -85.6239 158° South 487 560 39,000  Level Atlanta Center
10:13AM 33.8139 -85.5664 160° South 487 560 39,000  Level Atlanta Center
10:14AM 33.6917 -85.5094 159° South 482 555 39,000  Level Atlanta Center
10:15AM 33.5628 -85.4497 159° South 488 562 39,000  Level Atlanta Center
10:16AM 33.4425 -85.3906 158° South 480 552 39,000  Level Atlanta Center
10:17AM 33.3158 -85.3314 159° South 474 545 39,000  Level Atlanta Center
10:18AM 33.1911 -85.2775 160° South 474 545 39,000  Level Atlanta Center
10:19AM 33.0561 -85.2136 158° South 474 545 39,000  Level Atlanta Center
10:20AM 32.9314 -85.1625 161° South 479 551 39,000  Level Atlanta Center
10:21AM 32.8022 -85.1236 166° South 479 551 39,000  Level Atlanta Center
10:22AM 32.6794 -85.0778 163° South 465 535 39,000  Level Atlanta Center
10:23AM 32.5525 -85.0344 164° South 473 544 39,000  Level Atlanta Center
10:24AM 32.3644 -84.9708 164° South 466 536 39,000  Level Jacksonville Center
10:25AM 32.2358 -84.9286 164° South 478 550 39,000  Level Jacksonville Center
10:26AM 32.1092 -84.8867 164° South 478 550 39,000  Level Jacksonville Center
10:27AM 31.9825 -84.8447 164° South 472 543 39,000  Level Jacksonville Center
10:28AM 31.8431 -84.8000 165° South 472 543 39,000  Level Jacksonville Center
10:29AM 31.7164 -84.7561 164° South 472 543 39,000  Level Jacksonville Center
10:30AM 31.5897 -84.7144 164° South 472 543 39,000  Level Jacksonville Center
10:31AM 31.4650 -84.6731 164° South 472 543 39,000  Level Jacksonville Center
10:32AM 31.3383 -84.6317 164° South 472 543 39,000  Level Jacksonville Center
10:33AM 31.2136 -84.5906 164° South 472 543 39,000  Level Jacksonville Center
10:34AM 31.0847 -84.5469 164° South 472 543 39,000  Level Jacksonville Center
10:35AM 30.9578 -84.5061 165° South 472 543 39,000  Level Jacksonville Center
10:36AM 30.8331 -84.4675 165° South 472 543 39,000  Level Jacksonville Center
10:37AM 30.7061 -84.4244 164° South 472 543 39,000  Level Jacksonville Center
10:38AM 30.5794 -84.3839 165° South 472 543 39,000  Level Jacksonville Center
10:39AM 30.4569 -84.3119 153° Southeast 479 551 39,000  Level Jacksonville Center
10:40AM 30.3408 -84.2356 150° Southeast 484 557 39,000  Level Jacksonville Center
10:41AM 30.2247 -84.1594 150° Southeast 484 557 39,000  Level Jacksonville Center
10:42AM 30.1064 -84.0811 150° Southeast 484 557 39,000  Level Jacksonville Center
10:43AM 29.9903 -84.0053 151° Southeast 484 557 39,000  Level Jacksonville Center
10:44AM 29.8739 -83.9297 151° Southeast 479 551 39,000 -180 Level Jacksonville Center
10:45AM 29.7533 -83.8542 151° Southeast 484 557 38,700 -600 Descending Jacksonville Center
10:46AM 29.6392 -83.7792 150° Southeast 484 557 37,800 -960 Descending Jacksonville Center
10:47AM 29.5208 -83.7039 151° Southeast 484 557 36,800 -960 Descending Jacksonville Center
10:48AM 29.4022 -83.6267 150° Southeast 484 557 35,900 -900 Descending Jacksonville Center
10:49AM 29.2856 -83.5544 152° Southeast 479 551 35,000 -480 Descending Jacksonville Center
10:50AM 29.1692 -83.4800 151° Southeast 479 551 35,000  Level Jacksonville Center
10:51AM 29.0525 -83.4033 150° Southeast 479 551 35,000  Level Jacksonville Center
10:52AM 28.9358 -83.3314 152° Southeast 479 551 35,000  Level Jacksonville Center
10:53AM 28.8150 -83.2858 162° South 467 537 35,000  Level Jacksonville Center
10:54AM 28.6900 -83.2453 164° South 467 537 35,000  Level Jacksonville Center
10:55AM 28.5669 -83.1975 161° South 467 537 35,000  Level Jacksonville Center
10:56AM 28.4439 -83.1522 162° South 467 537 35,000 -1,500 Level Jacksonville Center
10:57AM 28.3231 -83.1094 163° South 461 531 32,000 -2,880 Descending Jacksonville Center
10:58AM 28.1958 -83.0644 163° South 461 531 29,300 -2,520 Descending Jacksonville Center
10:59AM 28.0789 -83.0197 161° South 461 531 27,000 -1,740 Descending Jacksonville Center
11:00AM 28.0419 -83.0028 158° South 455 524 26,900  Descending Miami Center
11:01AM 27.9314 -82.9519 158° South 449 517 27,000  Climbing Miami Center
11:02AM 27.8189 -82.9036 159° South 436 502 27,000 -300 Level Miami Center
11:03AM 27.7000 -82.8483 158° South 426 490 26,400 -900 Descending Miami Center
11:04AM 27.5958 -82.8006 158° South 414 476 25,300 -1,020 Descending Miami Center
11:05AM 27.4953 -82.7581 159° South 401 461 24,400 -1,200 Descending Miami Center
11:06AM 27.4072 -82.7161 157° South 387 445 23,000 -1,560 Descending Miami Center
11:07AM 27.3047 -82.6736 160° South 382 440 21,300 -1,740 Descending Miami Center
11:08AM 27.2172 -82.6153 149° Southeast 377 434 19,600 -1,620 Descending Miami Center
11:09AM 27.1383 -82.5531 145° Southeast 364 419 18,100 -1,560 Descending Miami Center
11:10AM 27.0594 -82.4911 145° Southeast 352 405 16,500 -1,680 Descending Miami Center
11:11AM 26.9822 -82.4336 146° Southeast 347 399 14,800 -1,740 Descending Miami Center
11:12AM 26.9053 -82.3694 143° Southeast 337 388 13,100 -1,680 Descending Miami Center
11:13AM 26.8325 -82.3125 145° Southeast 337 388 11,500 -1,380 Descending Miami Center
11:14AM 26.7614 -82.2558 145° Southeast 331 381 10,400 -1,320 Descending Miami Center
11:15AM 26.6944 -82.2061 146° Southeast 314 361 8,900 -1,500 Descending Miami Center
11:16AM 26.6297 -82.1522 143° Southeast 304 350 7,500 -1,380 Descending Miami Center
11:17AM 26.5647 -82.1028 146° Southeast 297 342 6,200 -1,320 Descending Miami Center
11:18AM 26.4950 -82.0672 155° Southeast 284 327 4,900 -1,320 Descending Miami Center
11:19AM 26.4250 -82.0342 157° South 279 321 3,600 -960 Descending Miami Center
11:20AM 26.3722 -81.9969 148° Southeast 253 291 3,000 -600 Descending Miami Center
11:22AM 26.5010 -81.8071 50° Northeast  Level Estimated
11:29AM 26.5333 -81.7500 50° Northeast  Level FlightAware Approximate
11:30AM 26.5362 -81.7552 50° Northeast  Level Estimated
11:31AM 26.5333 -81.7500 50° Northeast  Level FlightAware Approximate
11:32AM 26.5362 -81.7552 50° Northeast  Level Estimated
11:33AM 26.5333 -81.7500 50° Northeast  Level FlightAware Approximate
11:34AM 26.5362 -81.7552 50° Northeast  Level Estimated